Terminal Aerodrome Forecast
Issued by NWS

Home | Current Version | Previous Version | Text Only | Print | Product List | Glossary On
Versions: 1 2 3 4 5 6 7 8 9 10 11 12
000
FTUS42 TJSJ 261100
TAFJPS
TAF
TJPS 261139Z 2612/2712 05005KT P6SM FEW025
     FM261430 14012KT P6SM FEW030 SCT060
     FM262330 05005KT P6SM FEW025=

USA.gov is the U.S. government's official web portal to all federal, state and local government web resources and services.